Time;durP1;ratioP1;P1;durP2;ratioP2;P2;SDS_P1;SDS_P2;PMS_P1;PMS_P2;Temp;Humidity;BMP_temperature;BMP_pressure;BME280_temperature;BME280_humidity;BME280_pressure;Samples;Min_cycle;Max_cycle;Signal;HPM_P1;HPM_P2
2022/11/03 00:00:34;;;;;;;15.23;2.20;;;13.40;51.50;;;;;;5059656;28;20059;-52
2022/11/03 00:03:01;;;;;;;11.98;2.13;;;13.40;51.70;;;;;;5062179;28;20049;-51
2022/11/03 00:08:13;;;;;;;7.57;1.98;;;13.40;51.80;;;;;;5058353;28;20064;-50
2022/11/03 00:10:41;;;;;;;11.85;2.17;;;13.40;51.80;;;;;;5059220;28;20059;-49
2022/11/03 00:13:08;;;;;;;7.95;1.58;;;13.40;51.80;;;;;;5061326;28;20385;-52
2022/11/03 00:15:36;;;;;;;11.57;2.17;;;13.40;51.90;;;;;;5061177;28;20045;-51
2022/11/03 00:18:03;;;;;;;7.40;2.10;;;13.40;52.00;;;;;;5063083;28;20068;-52
2022/11/03 00:20:30;;;;;;;11.85;2.13;;;13.50;52.10;;;;;;5061218;28;20484;-50
2022/11/03 00:22:58;;;;;;;9.88;1.85;;;13.50;52.20;;;;;;5061047;28;20059;-49
2022/11/03 00:25:25;;;;;;;10.93;1.67;;;13.50;52.20;;;;;;5060725;28;20056;-50
2022/11/03 00:27:55;;;;;;;6.55;1.85;;;13.50;52.20;;;;;;5062274;28;20063;-51
2022/11/03 00:30:22;;;;;;;15.48;2.50;;;13.50;52.20;;;;;;5060319;28;20052;-54
2022/11/03 00:32:51;;;;;;;14.20;2.58;;;13.60;52.40;;;;;;5063123;28;20064;-52
2022/11/03 00:35:18;;;;;;;9.60;1.92;;;13.60;52.50;;;;;;5060981;28;20053;-48
2022/11/03 00:37:45;;;;;;;9.88;1.95;;;13.60;52.50;;;;;;5062156;28;20053;-50
2022/11/03 00:40:13;;;;;;;12.77;1.77;;;13.60;52.40;;;;;;5061338;28;20052;-51
2022/11/03 00:42:40;;;;;;;13.48;2.53;;;13.70;52.50;;;;;;5061923;28;20048;-50
2022/11/03 00:45:08;;;;;;;8.52;1.70;;;13.70;52.60;;;;;;5060912;28;20072;-50
2022/11/03 00:48:28;;;;;;;13.52;2.08;;;13.70;52.50;;;;;;5062097;28;20052;-51
2022/11/03 00:50:24;;;;;;;9.40;2.17;;;13.70;52.60;;;;;;5060579;28;20068;-52
2022/11/03 00:52:51;;;;;;;9.25;2.28;;;13.70;52.60;;;;;;5062792;28;20053;-52
2022/11/03 00:55:19;;;;;;;13.75;2.40;;;13.70;52.60;;;;;;5061859;28;20052;-51
2022/11/03 00:57:46;;;;;;;11.68;2.20;;;13.80;52.80;;;;;;5061687;28;20048;-47
2022/11/03 01:00:13;;;;;;;11.55;2.22;;;13.70;52.80;;;;;;5058779;28;20048;-44
2022/11/03 01:02:41;;;;;;;7.60;1.80;;;13.80;52.90;;;;;;5080686;22;20068;-82
2022/11/03 01:07:55;;;;;;;14.00;2.30;;;13.80;52.90;;;;;;5049252;28;20056;-39
2022/11/03 01:10:22;;;;;;;8.18;2.20;;;13.80;52.80;;;;;;5051081;28;20056;-41
2022/11/03 01:12:49;;;;;;;11.48;2.40;;;13.80;52.90;;;;;;5045993;28;20052;-42
2022/11/03 01:15:16;;;;;;;9.07;1.83;;;13.80;53.00;;;;;;5041269;28;20461;-38
2022/11/03 01:17:43;;;;;;;15.10;1.85;;;13.80;53.00;;;;;;5052760;28;20057;-39
2022/11/03 01:20:11;;;;;;;7.63;2.05;;;13.80;53.00;;;;;;5042317;28;20057;-39
2022/11/03 01:22:38;;;;;;;11.13;2.53;;;13.80;53.10;;;;;;5038757;28;20056;-38
2022/11/03 01:25:08;;;;;;;12.20;2.50;;;13.90;53.10;;;;;;5052581;28;20056;-38
2022/11/03 01:27:35;;;;;;;11.15;1.85;;;13.90;53.20;;;;;;5048906;28;20056;-39
2022/11/03 01:30:02;;;;;;;15.38;2.63;;;13.90;53.20;;;;;;5040528;28;20061;-39
2022/11/03 01:32:29;;;;;;;10.60;2.13;;;13.90;53.20;;;;;;5050023;28;20064;-38
2022/11/03 01:34:56;;;;;;;16.55;2.30;;;13.90;53.30;;;;;;5057709;28;20065;-39
2022/11/03 01:37:25;;;;;;;14.13;2.50;;;13.90;53.40;;;;;;5048814;28;20583;-40
2022/11/03 01:39:52;;;;;;;16.25;3.03;;;13.90;53.40;;;;;;5040554;28;20064;-40
2022/11/03 01:42:20;;;;;;;14.48;2.13;;;13.90;53.50;;;;;;5048467;28;20056;-40
2022/11/03 01:44:48;;;;;;;13.30;2.45;;;13.90;53.60;;;;;;5040665;28;20063;-39
2022/11/03 01:47:22;;;;;;;11.88;1.92;;;13.90;54.10;;;;;;5040531;28;20068;-39
2022/11/03 01:49:55;;;;;;;11.73;2.08;;;14.00;53.70;;;;;;5047056;28;20075;-39
2022/11/03 01:52:27;;;;;;;10.63;2.33;;;14.00;53.60;;;;;;5057535;28;20048;-41
2022/11/03 01:54:58;;;;;;;11.18;2.38;;;14.00;53.70;;;;;;5052587;28;20048;-38
2022/11/03 01:57:31;;;;;;;9.30;2.58;;;14.00;53.70;;;;;;5052935;28;20057;-40
2022/11/03 02:00:00;;;;;;;12.05;1.67;;;14.00;53.70;;;;;;5043741;28;20049;-44
2022/11/03 02:02:27;;;;;;;9.48;2.40;;;14.00;53.60;;;;;;5044125;28;20049;-52
2022/11/03 02:04:58;;;;;;;7.47;1.70;;;14.00;53.70;;;;;;5045700;28;20053;-52
2022/11/03 02:07:31;;;;;;;7.47;2.00;;;14.00;53.70;;;;;;5050727;28;20055;-49
2022/11/03 02:10:00;;;;;;;13.32;2.72;;;14.00;53.80;;;;;;5044321;28;20053;-49
2022/11/03 02:12:29;;;;;;;8.43;1.88;;;14.10;54.20;;;;;;5044244;28;20049;-48
2022/11/03 02:15:01;;;;;;;13.57;2.70;;;14.10;53.70;;;;;;5045493;28;20419;-50
2022/11/03 02:17:30;;;;;;;6.47;1.67;;;14.10;53.60;;;;;;5049980;28;20111;-52
2022/11/03 02:20:01;;;;;;;7.95;2.08;;;14.10;53.50;;;;;;5058337;28;20357;-45
2022/11/03 02:22:55;;;;;;;9.57;2.00;;;14.10;53.50;;;;;;5054148;28;20056;-51
2022/11/03 02:25:43;;;;;;;9.52;1.90;;;14.10;53.50;;;;;;5038620;28;20049;-50
2022/11/03 02:28:12;;;;;;;8.95;1.95;;;14.10;53.40;;;;;;5046495;28;20053;-52
2022/11/03 02:30:44;;;;;;;4.97;1.73;;;14.10;53.30;;;;;;5053266;28;20614;-42
2022/11/03 02:33:20;;;;;;;13.80;2.97;;;14.10;53.20;;;;;;5043559;28;20064;-52
2022/11/03 02:35:52;;;;;;;6.35;1.50;;;14.10;53.20;;;;;;5046309;28;20049;-52
2022/11/03 02:38:22;;;;;;;6.43;1.88;;;14.20;53.20;;;;;;5031411;28;20408;-48
2022/11/03 02:40:54;;;;;;;9.65;2.30;;;14.10;53.20;;;;;;5049603;28;20075;-51
2022/11/03 02:43:24;;;;;;;12.95;1.85;;;14.10;53.20;;;;;;5041837;28;20053;-50
2022/11/03 02:45:52;;;;;;;13.40;2.50;;;14.10;53.20;;;;;;5040840;28;20045;-49
2022/11/03 02:48:20;;;;;;;7.35;1.63;;;14.10;53.20;;;;;;5056599;28;20063;-47
2022/11/03 02:50:47;;;;;;;10.45;1.98;;;14.10;53.20;;;;;;5042074;28;20049;-51
2022/11/03 02:53:16;;;;;;;8.55;2.08;;;14.10;53.20;;;;;;5039574;28;20052;-51
2022/11/03 02:55:55;;;;;;;11.48;1.92;;;14.10;53.20;;;;;;5040104;28;20136;-46
2022/11/03 02:58:29;;;;;;;12.35;2.22;;;14.10;53.30;;;;;;5053924;28;20056;-47
2022/11/03 03:01:01;;;;;;;6.35;1.70;;;14.10;53.30;;;;;;5048358;28;20063;-51
2022/11/03 03:03:32;;;;;;;7.05;1.80;;;14.00;53.30;;;;;;5046688;28;20057;-51
2022/11/03 03:06:05;;;;;;;8.43;1.60;;;14.00;53.20;;;;;;5040189;28;20053;-47
2022/11/03 03:08:34;;;;;;;8.60;1.95;;;14.00;53.30;;;;;;5039788;28;20515;-47
2022/11/03 03:11:06;;;;;;;4.43;1.40;;;14.00;53.30;;;;;;5042666;28;20491;-51
2022/11/03 03:13:33;;;;;;;10.10;2.00;;;14.00;53.30;;;;;;5057839;28;20053;-52
2022/11/03 03:16:07;;;;;;;10.25;2.10;;;14.00;53.40;;;;;;5046400;28;20412;-45
2022/11/03 03:18:47;;;;;;;8.77;2.10;;;14.00;53.50;;;;;;5040367;28;20052;-51
2022/11/03 03:21:19;;;;;;;9.30;2.50;;;14.00;53.50;;;;;;5040418;28;20053;-37
2022/11/03 03:23:51;;;;;;;12.20;2.30;;;14.00;53.60;;;;;;5052729;28;20472;-41
2022/11/03 03:26:24;;;;;;;8.82;1.75;;;14.00;53.60;;;;;;5053572;28;20060;-38
2022/11/03 03:28:56;;;;;;;6.63;1.97;;;14.00;53.60;;;;;;5044541;28;20057;-39
2022/11/03 03:31:26;;;;;;;9.50;2.58;;;14.00;53.60;;;;;;5039608;28;20057;-38
2022/11/03 03:33:56;;;;;;;11.32;2.60;;;14.00;53.70;;;;;;5061624;28;20173;-38
2022/11/03 03:36:26;;;;;;;15.43;2.22;;;14.00;53.80;;;;;;5034931;28;20136;-40
2022/11/03 03:38:59;;;;;;;9.93;2.13;;;14.00;53.80;;;;;;5057216;28;20090;-38
2022/11/03 03:41:31;;;;;;;7.97;2.00;;;13.90;53.90;;;;;;5039054;28;20056;-40
2022/11/03 03:44:04;;;;;;;10.18;2.17;;;13.90;53.80;;;;;;5052979;28;20060;-38
2022/11/03 03:46:36;;;;;;;8.18;1.80;;;13.90;53.90;;;;;;5046435;28;20058;-40
2022/11/03 03:49:04;;;;;;;14.68;2.40;;;13.90;53.90;;;;;;5057213;28;20056;-38
2022/11/03 03:51:33;;;;;;;10.57;2.10;;;13.90;53.90;;;;;;5051264;28;20052;-38
2022/11/03 03:54:00;;;;;;;15.02;2.83;;;13.90;54.00;;;;;;5043874;28;20404;-40
2022/11/03 03:56:35;;;;;;;7.22;1.80;;;13.90;54.00;;;;;;5051102;28;20045;-43
2022/11/03 03:59:03;;;;;;;12.57;2.13;;;13.90;54.10;;;;;;5054515;28;20059;-41
2022/11/03 04:01:30;;;;;;;10.65;2.00;;;13.90;54.00;;;;;;5052380;28;20395;-42
2022/11/03 04:03:57;;;;;;;8.60;2.10;;;13.90;54.00;;;;;;5050760;28;20056;-42
2022/11/03 04:06:25;;;;;;;12.93;2.45;;;13.90;54.10;;;;;;5043480;28;20504;-42
2022/11/03 04:08:52;;;;;;;8.18;3.05;;;13.90;54.10;;;;;;5054407;28;20049;-41
2022/11/03 04:22:21;;;;;;;9.00;2.15;;;13.90;54.20;;;;;;5025750;28;20060;-38
2022/11/03 04:24:50;;;;;;;11.63;2.28;;;13.90;54.10;;;;;;5049190;28;21355;-41
2022/11/03 04:27:29;;;;;;;9.73;2.15;;;13.90;54.20;;;;;;5054461;28;20071;-38
2022/11/03 04:30:02;;;;;;;7.78;1.92;;;13.90;54.30;;;;;;5050736;28;20055;-39
2022/11/03 04:32:29;;;;;;;11.70;2.78;;;13.90;54.20;;;;;;5057040;28;20776;-40
2022/11/03 04:34:58;;;;;;;13.88;1.70;;;13.90;54.20;;;;;;5056701;28;20049;-39
2022/11/03 04:37:27;;;;;;;11.10;2.15;;;13.90;54.20;;;;;;5053525;28;20052;-39
2022/11/03 04:40:00;;;;;;;7.22;2.08;;;13.90;54.20;;;;;;5054714;28;20135;-38
2022/11/03 04:42:30;;;;;;;8.00;2.03;;;13.90;54.30;;;;;;5053657;28;20059;-39
2022/11/03 04:45:01;;;;;;;7.88;1.85;;;13.90;54.30;;;;;;5058797;28;20048;-39
2022/11/03 04:47:30;;;;;;;7.70;2.55;;;13.90;54.30;;;;;;5058556;28;20051;-37
2022/11/03 04:49:59;;;;;;;8.93;1.88;;;13.90;54.30;;;;;;5056129;28;20048;-40
2022/11/03 04:52:26;;;;;;;8.52;2.65;;;13.80;54.30;;;;;;5040390;28;20408;-38
2022/11/03 04:54:54;;;;;;;7.65;2.33;;;13.80;54.20;;;;;;5022516;28;20542;-38
2022/11/03 04:57:21;;;;;;;6.38;1.70;;;13.80;54.20;;;;;;5042491;28;20403;-37
2022/11/03 04:59:50;;;;;;;7.97;1.50;;;13.80;54.20;;;;;;5060127;28;20048;-38
2022/11/03 05:02:21;;;;;;;6.85;1.90;;;13.80;54.20;;;;;;5041939;28;20052;-39
2022/11/03 05:04:48;;;;;;;5.53;1.55;;;13.80;54.20;;;;;;5050567;28;20064;-40
2022/11/03 05:07:24;;;;;;;7.55;2.20;;;13.80;54.20;;;;;;5047977;28;20527;-38
2022/11/03 05:09:51;;;;;;;7.13;1.90;;;13.80;54.20;;;;;;5042676;28;20075;-38
2022/11/03 05:12:19;;;;;;;7.97;1.77;;;13.80;54.20;;;;;;5038671;28;20057;-37
2022/11/03 05:14:47;;;;;;;6.05;1.58;;;13.80;54.20;;;;;;5042684;28;20059;-40
2022/11/03 05:17:21;;;;;;;8.18;1.90;;;13.80;54.30;;;;;;5028156;28;20599;-39
2022/11/03 05:19:50;;;;;;;8.93;2.40;;;13.80;54.40;;;;;;5042326;28;20052;-39
2022/11/03 05:22:20;;;;;;;10.00;2.00;;;13.80;54.40;;;;;;5046566;28;20056;-40
2022/11/03 05:24:47;;;;;;;7.70;2.00;;;13.80;54.40;;;;;;5044713;28;20511;-41
2022/11/03 05:27:20;;;;;;;9.70;2.22;;;13.70;54.40;;;;;;5039593;28;20440;-43
2022/11/03 05:29:50;;;;;;;10.95;2.20;;;13.70;54.50;;;;;;5042743;28;20049;-42
2022/11/03 05:32:22;;;;;;;10.68;3.00;;;13.70;54.40;;;;;;5036094;28;20056;-38
2022/11/03 05:34:51;;;;;;;14.15;2.10;;;13.70;54.50;;;;;;5038620;28;20530;-38
2022/11/03 05:37:26;;;;;;;9.15;1.70;;;13.70;54.60;;;;;;5051226;28;20056;-39
2022/11/03 05:39:56;;;;;;;9.73;2.85;;;13.70;54.70;;;;;;5046279;28;20052;-39
2022/11/03 05:42:32;;;;;;;20.63;7.05;;;13.70;54.70;;;;;;5046972;28;20062;-38
2022/11/03 05:45:02;;;;;;;18.00;5.57;;;13.70;54.80;;;;;;5045673;28;20412;-39
2022/11/03 05:47:36;;;;;;;9.45;3.10;;;13.60;54.80;;;;;;5039256;28;20041;-40
2022/11/03 05:50:14;;;;;;;12.98;2.55;;;13.60;54.80;;;;;;5038252;28;20056;-43
2022/11/03 05:52:44;;;;;;;9.48;2.97;;;13.60;54.90;;;;;;5045449;28;20749;-38
2022/11/03 05:55:25;;;;;;;11.93;2.08;;;13.70;54.90;;;;;;5048084;28;20492;-37
2022/11/03 05:57:55;;;;;;;11.25;2.42;;;13.60;55.10;;;;;;5051162;28;20044;-43
2022/11/03 06:00:29;;;;;;;12.32;2.22;;;13.60;55.00;;;;;;5043257;28;21604;-43
2022/11/03 06:02:58;;;;;;;12.27;2.22;;;13.60;55.10;;;;;;5049784;28;20053;-41
2022/11/03 06:05:27;;;;;;;13.50;2.33;;;13.60;55.10;;;;;;5051686;28;20420;-43
2022/11/03 06:07:56;;;;;;;8.95;2.08;;;13.60;55.10;;;;;;5048547;28;20045;-37
2022/11/03 06:10:28;;;;;;;11.10;2.60;;;13.60;55.20;;;;;;5043549;28;20061;-40
2022/11/03 06:13:01;;;;;;;9.77;2.30;;;13.60;55.20;;;;;;5045315;28;20057;-41
2022/11/03 06:15:31;;;;;;;11.13;2.20;;;13.60;55.20;;;;;;5038261;28;20487;-44
2022/11/03 06:18:01;;;;;;;9.80;2.88;;;13.60;55.20;;;;;;5039923;28;20507;-40
2022/11/03 06:20:29;;;;;;;9.38;3.10;;;13.60;55.20;;;;;;5046286;28;20853;-40
2022/11/03 06:22:56;;;;;;;9.60;2.30;;;13.60;55.20;;;;;;5053032;28;20055;-39
2022/11/03 06:25:28;;;;;;;12.02;2.28;;;13.60;55.30;;;;;;5043004;28;20049;-38
2022/11/03 06:28:01;;;;;;;7.32;1.90;;;13.60;55.30;;;;;;5041600;28;20056;-40
2022/11/03 06:30:30;;;;;;;9.13;2.20;;;13.60;55.30;;;;;;5040271;28;20068;-39
2022/11/03 06:33:03;;;;;;;10.45;2.38;;;13.60;55.20;;;;;;5051728;28;20056;-43
2022/11/03 06:35:30;;;;;;;8.80;2.03;;;13.70;55.40;;;;;;5052975;28;20055;-46
2022/11/03 06:37:59;;;;;;;8.38;2.05;;;13.60;55.40;;;;;;5039190;28;20842;-42
2022/11/03 06:40:37;;;;;;;7.13;2.15;;;13.60;55.40;;;;;;5043663;28;20406;-39
2022/11/03 06:43:27;;;;;;;8.90;2.72;;;13.70;55.60;;;;;;5048729;28;20060;-42
2022/11/03 06:45:57;;;;;;;7.90;2.63;;;13.70;55.60;;;;;;5044371;28;20063;-41
2022/11/03 06:48:28;;;;;;;9.57;2.03;;;13.70;55.50;;;;;;5047275;28;20048;-40
2022/11/03 06:50:57;;;;;;;13.68;3.22;;;13.70;55.60;;;;;;5046087;28;20068;-41
2022/11/03 06:53:29;;;;;;;8.93;2.10;;;13.70;55.70;;;;;;5052763;28;20059;-41
2022/11/03 06:55:56;;;;;;;9.93;1.80;;;13.70;55.80;;;;;;5043209;28;20045;-38
2022/11/03 06:58:27;;;;;;;6.68;1.80;;;13.70;55.80;;;;;;5049088;28;20394;-38
2022/11/03 07:00:58;;;;;;;7.57;2.28;;;13.70;55.80;;;;;;5042838;28;20061;-40
2022/11/03 07:03:30;;;;;;;10.27;2.15;;;13.70;55.80;;;;;;5047856;28;20059;-41
2022/11/03 07:06:00;;;;;;;10.80;2.00;;;13.70;55.80;;;;;;5045769;28;20049;-38
2022/11/03 07:08:30;;;;;;;7.82;2.00;;;13.80;55.80;;;;;;5049973;28;20377;-39
2022/11/03 07:11:02;;;;;;;9.40;2.47;;;13.80;55.90;;;;;;5047111;28;20475;-38
2022/11/03 07:13:32;;;;;;;7.18;1.80;;;13.80;55.90;;;;;;5042336;28;20061;-37
2022/11/03 07:15:59;;;;;;;9.38;2.20;;;13.80;55.90;;;;;;5042898;28;20436;-38
2022/11/03 07:18:33;;;;;;;5.45;1.80;;;13.80;55.80;;;;;;5042910;28;20049;-38
2022/11/03 07:21:05;;;;;;;10.10;1.60;;;13.80;55.90;;;;;;5041267;28;20045;-41
2022/11/03 07:23:32;;;;;;;11.40;2.35;;;13.80;55.80;;;;;;5048525;28;20053;-38
2022/11/03 07:26:01;;;;;;;12.65;2.38;;;13.90;55.90;;;;;;5052410;28;20075;-38
2022/11/03 07:28:32;;;;;;;8.18;2.00;;;13.90;55.90;;;;;;5042877;28;20044;-39
2022/11/03 07:31:01;;;;;;;14.85;2.80;;;13.90;56.00;;;;;;5047672;28;20506;-38
2022/11/03 07:33:31;;;;;;;8.60;2.03;;;13.90;55.90;;;;;;5060347;28;20498;-38
2022/11/03 07:36:00;;;;;;;6.80;1.77;;;13.90;55.90;;;;;;5052104;28;20048;-39
2022/11/03 07:38:29;;;;;;;7.75;1.83;;;13.90;55.90;;;;;;5043362;28;20048;-39
2022/11/03 07:40:58;;;;;;;8.07;2.20;;;13.90;56.00;;;;;;5049907;28;20052;-38
2022/11/03 07:43:30;;;;;;;16.92;2.55;;;13.90;56.00;;;;;;5048057;28;20056;-39
2022/11/03 07:45:59;;;;;;;9.57;2.40;;;13.90;56.10;;;;;;5057165;28;20052;-39
2022/11/03 07:48:28;;;;;;;9.63;2.33;;;13.90;56.10;;;;;;5054085;28;20052;-42
2022/11/03 07:51:00;;;;;;;14.25;2.33;;;13.90;56.20;;;;;;5036007;28;20064;-38
2022/11/03 07:53:36;;;;;;;11.27;2.22;;;14.00;56.30;;;;;;5058627;28;20515;-38
2022/11/03 08:02:50;;;;;;;10.02;2.28;;;14.00;56.30;;;;;;5063373;23;20032;-40
2022/11/03 08:05:17;;;;;;;5.85;1.77;;;14.10;56.20;;;;;;5006004;28;20058;-38
2022/11/03 08:07:46;;;;;;;10.52;2.20;;;14.10;56.30;;;;;;5021994;28;20389;-38
2022/11/03 08:10:13;;;;;;;9.68;2.00;;;14.10;56.40;;;;;;5006037;28;20520;-37
2022/11/03 08:12:40;;;;;;;9.70;2.13;;;14.20;56.40;;;;;;5018171;28;20512;-39
2022/11/03 08:15:09;;;;;;;11.98;2.13;;;14.20;56.40;;;;;;5022370;28;20057;-38
2022/11/03 08:17:36;;;;;;;12.05;2.60;;;14.20;56.40;;;;;;5006815;28;20061;-39
2022/11/03 08:20:03;;;;;;;7.15;1.80;;;14.30;56.40;;;;;;5008749;28;20050;-39
2022/11/03 08:22:31;;;;;;;11.07;2.13;;;14.30;56.40;;;;;;5007201;28;20470;-44
2022/11/03 08:24:59;;;;;;;7.18;2.00;;;14.30;56.40;;;;;;5003938;28;20058;-41
2022/11/03 08:27:26;;;;;;;9.00;2.45;;;14.40;56.30;;;;;;5003499;28;20065;-39
2022/11/03 08:29:54;;;;;;;7.18;2.00;;;14.40;56.20;;;;;;5005531;28;20474;-38
2022/11/03 08:32:21;;;;;;;15.05;2.45;;;14.50;56.20;;;;;;5001998;28;20060;-39
2022/11/03 08:34:48;;;;;;;7.28;1.80;;;14.50;56.10;;;;;;5010560;28;20652;-39
2022/11/03 08:37:16;;;;;;;12.60;2.38;;;14.50;56.10;;;;;;5004210;28;20053;-38
2022/11/03 08:39:43;;;;;;;9.05;2.08;;;14.50;56.00;;;;;;5010714;28;20060;-38
2022/11/03 08:42:11;;;;;;;8.65;2.08;;;14.60;56.00;;;;;;5004808;28;20062;-39
2022/11/03 08:44:39;;;;;;;10.93;2.50;;;14.60;56.00;;;;;;5022421;28;20065;-39
2022/11/03 08:47:06;;;;;;;9.45;1.77;;;14.70;56.00;;;;;;5009791;28;20492;-38
2022/11/03 08:49:33;;;;;;;14.65;2.20;;;14.70;55.90;;;;;;5016243;28;20052;-37
2022/11/03 08:52:00;;;;;;;9.85;2.20;;;14.70;55.80;;;;;;5016743;28;20082;-39
2022/11/03 08:54:28;;;;;;;11.02;1.92;;;14.70;55.80;;;;;;5012312;28;20054;-39
2022/11/03 08:56:55;;;;;;;16.48;3.20;;;14.80;55.80;;;;;;5003414;28;20054;-38
2022/11/03 08:59:23;;;;;;;6.20;1.80;;;14.80;55.90;;;;;;5004801;28;20061;-39
2022/11/03 09:01:51;;;;;;;12.68;2.08;;;14.80;55.90;;;;;;5003504;28;20129;-44
2022/11/03 09:04:18;;;;;;;9.98;1.90;;;14.90;55.90;;;;;;5020284;28;20061;-42
2022/11/03 09:06:45;;;;;;;11.00;2.15;;;14.90;55.80;;;;;;5013756;28;20050;-40
2022/11/03 09:09:13;;;;;;;9.15;2.38;;;14.90;55.80;;;;;;5006484;28;20477;-42
2022/11/03 09:11:40;;;;;;;8.88;2.15;;;15.00;55.80;;;;;;5009334;28;20072;-42
2022/11/03 09:14:07;;;;;;;8.27;2.10;;;15.00;55.80;;;;;;5014189;28;20054;-40
2022/11/03 09:16:35;;;;;;;11.88;2.38;;;15.00;55.70;;;;;;5006148;28;20077;-40
2022/11/03 09:19:03;;;;;;;9.23;2.22;;;15.10;55.70;;;;;;5004470;28;20053;-42
2022/11/03 09:21:30;;;;;;;11.57;2.03;;;15.10;55.70;;;;;;5003494;28;20088;-43
2022/11/03 09:23:58;;;;;;;9.07;2.00;;;15.10;55.70;;;;;;5011499;28;20061;-39
2022/11/03 09:26:26;;;;;;;9.20;2.33;;;15.10;55.60;;;;;;5003504;28;20058;-41
2022/11/03 09:28:53;;;;;;;9.23;1.77;;;15.20;55.60;;;;;;5009208;28;20057;-41
2022/11/03 09:31:20;;;;;;;8.80;1.98;;;15.20;55.60;;;;;;5014447;28;20060;-39
2022/11/03 09:33:49;;;;;;;5.07;1.92;;;15.20;55.50;;;;;;5011650;28;20057;-38
2022/11/03 09:36:16;;;;;;;9.40;2.17;;;15.30;55.50;;;;;;5015071;28;20064;-37
2022/11/03 09:38:43;;;;;;;10.18;2.03;;;15.30;55.40;;;;;;5012490;28;20057;-38
2022/11/03 09:41:16;;;;;;;6.43;1.70;;;15.30;55.30;;;;;;5012582;28;20058;-37
2022/11/03 09:43:44;;;;;;;9.82;2.08;;;15.30;55.30;;;;;;5006634;28;20057;-37
2022/11/03 09:46:11;;;;;;;8.82;2.10;;;15.30;55.20;;;;;;5017633;28;20073;-37
2022/11/03 09:48:39;;;;;;;11.93;2.15;;;15.40;55.20;;;;;;5011745;28;20057;-38
2022/11/03 09:51:10;;;;;;;12.13;1.90;;;15.40;55.20;;;;;;5010033;28;20092;-42
2022/11/03 09:53:37;;;;;;;9.15;2.00;;;15.40;55.20;;;;;;5014378;28;20485;-37
2022/11/03 09:56:08;;;;;;;10.20;2.45;;;15.40;55.00;;;;;;5007792;28;20068;-38
2022/11/03 09:58:35;;;;;;;7.63;2.00;;;15.50;55.00;;;;;;5020550;28;20065;-37
2022/11/03 10:01:03;;;;;;;7.20;1.88;;;15.50;55.10;;;;;;5011883;28;20057;-38
2022/11/03 10:03:31;;;;;;;9.05;2.10;;;15.50;55.00;;;;;;5005698;28;20060;-37
2022/11/03 10:05:58;;;;;;;8.48;1.80;;;15.60;55.00;;;;;;5006150;28;20058;-41
2022/11/03 10:08:29;;;;;;;6.55;2.00;;;15.60;54.90;;;;;;5004687;28;20053;-39
2022/11/03 10:10:58;;;;;;;9.07;2.00;;;15.60;54.80;;;;;;5003193;28;20057;-38
2022/11/03 10:13:31;;;;;;;8.27;1.85;;;15.60;54.70;;;;;;5005472;28;20050;-41
2022/11/03 10:15:59;;;;;;;8.07;1.48;;;15.60;54.70;;;;;;5005043;28;20068;-37
2022/11/03 10:18:28;;;;;;;6.78;1.73;;;15.70;54.70;;;;;;5002079;28;20049;-40
2022/11/03 10:20:56;;;;;;;7.13;1.80;;;15.70;54.70;;;;;;5004992;28;20405;-38
2022/11/03 10:23:23;;;;;;;6.88;2.03;;;15.80;54.70;;;;;;5005136;28;20064;-39
2022/11/03 10:25:52;;;;;;;6.45;1.67;;;15.70;54.60;;;;;;5006248;28;20054;-38
2022/11/03 10:28:21;;;;;;;8.77;2.13;;;15.80;54.60;;;;;;5005923;28;20068;-38
2022/11/03 10:30:52;;;;;;;13.32;2.10;;;15.80;54.50;;;;;;5002288;28;20050;-40
2022/11/03 10:33:27;;;;;;;10.45;2.00;;;15.80;54.60;;;;;;5005443;28;20684;-38
2022/11/03 10:35:55;;;;;;;9.13;1.70;;;15.90;54.50;;;;;;5004871;28;20057;-41
2022/11/03 10:38:30;;;;;;;5.68;1.90;;;15.90;54.40;;;;;;5001495;28;20401;-39
2022/11/03 10:41:11;;;;;;;8.02;1.70;;;15.90;54.30;;;;;;5002464;28;20041;-40
2022/11/03 10:43:39;;;;;;;12.88;1.80;;;15.90;54.20;;;;;;5003768;28;20077;-37
2022/11/03 10:46:16;;;;;;;5.60;1.67;;;16.00;54.20;;;;;;4999087;28;20072;-39
2022/11/03 10:48:43;;;;;;;9.30;2.20;;;16.00;54.10;;;;;;5001503;28;20046;-38
2022/11/03 10:51:12;;;;;;;5.53;1.88;;;16.00;54.10;;;;;;5000382;28;20058;-36
2022/11/03 10:53:41;;;;;;;17.30;1.95;;;16.00;54.10;;;;;;4998011;28;20057;-40
2022/11/03 10:56:11;;;;;;;8.88;2.28;;;16.00;54.00;;;;;;5004816;28;20444;-37
2022/11/03 10:58:38;;;;;;;7.70;1.98;;;16.00;54.00;;;;;;5004137;28;20069;-38
2022/11/03 11:01:08;;;;;;;9.55;1.77;;;16.00;54.00;;;;;;5002793;28;20046;-38
2022/11/03 11:03:41;;;;;;;9.27;2.40;;;16.10;54.00;;;;;;5013027;28;20053;-37
2022/11/03 11:06:18;;;;;;;7.97;1.67;;;16.10;53.80;;;;;;5025035;28;20086;-37
2022/11/03 11:08:46;;;;;;;7.68;1.77;;;16.10;53.70;;;;;;5024212;28;20057;-41
2022/11/03 11:11:16;;;;;;;7.65;2.00;;;16.10;53.70;;;;;;5022872;28;20053;-37
2022/11/03 11:13:44;;;;;;;10.45;2.22;;;16.10;53.70;;;;;;5022598;28;20054;-40
2022/11/03 11:16:48;;;;;;;11.88;2.60;;;16.10;53.70;;;;;;5023972;28;20049;-39
2022/11/03 11:19:16;;;;;;;7.20;2.23;;;16.10;53.60;;;;;;5023788;28;20963;-37
2022/11/03 11:22:13;;;;;;;5.63;2.17;;;16.10;53.60;;;;;;5022876;28;20061;-38
2022/11/03 11:25:00;;;;;;;10.82;2.75;;;16.10;53.50;;;;;;5023791;28;20476;-37
2022/11/03 11:27:57;;;;;;;5.53;2.10;;;16.10;53.50;;;;;;5020998;28;20485;-38
2022/11/03 11:30:58;;;;;;;8.07;2.25;;;16.10;53.40;;;;;;5022110;28;20413;-38
2022/11/03 11:33:26;;;;;;;11.90;2.38;;;16.10;53.50;;;;;;5018663;28;20054;-37
2022/11/03 11:36:19;;;;;;;6.57;2.40;;;16.20;53.60;;;;;;5024035;28;20069;-37
2022/11/03 11:39:02;;;;;;;8.18;2.30;;;16.10;53.50;;;;;;5023668;28;20120;-39
2022/11/03 11:42:10;;;;;;;7.68;2.08;;;16.10;53.40;;;;;;5020180;28;20481;-37
2022/11/03 11:44:52;;;;;;;6.68;1.80;;;16.10;53.40;;;;;;5024115;28;20484;-38
2022/11/03 11:47:32;;;;;;;6.18;1.80;;;16.20;53.40;;;;;;5023228;28;20080;-43
2022/11/03 11:50:22;;;;;;;8.07;2.40;;;16.10;53.40;;;;;;5021408;28;20478;-40
2022/11/03 11:52:55;;;;;;;7.93;1.88;;;16.10;53.40;;;;;;5020481;28;20421;-41
2022/11/03 11:55:34;;;;;;;8.65;2.47;;;16.20;53.30;;;;;;5020033;28;20049;-39
2022/11/03 11:58:03;;;;;;;6.55;1.98;;;16.20;53.30;;;;;;5023069;28;20064;-37
2022/11/03 12:00:34;;;;;;;12.88;2.45;;;16.20;53.30;;;;;;5022158;28;20060;-37
2022/11/03 12:03:03;;;;;;;7.20;2.28;;;16.20;53.30;;;;;;5022603;28;20061;-37
2022/11/03 12:05:32;;;;;;;7.85;2.28;;;16.20;53.30;;;;;;5020361;28;20053;-37
2022/11/03 12:08:00;;;;;;;9.13;2.20;;;16.20;53.20;;;;;;5018815;28;20627;-40
2022/11/03 12:10:30;;;;;;;6.53;2.17;;;16.10;53.20;;;;;;5004667;28;20498;-38
2022/11/03 12:12:59;;;;;;;9.45;2.63;;;16.10;53.10;;;;;;5011502;28;20054;-42
2022/11/03 12:15:49;;;;;;;8.38;2.50;;;16.10;53.20;;;;;;5017581;28;20500;-38
2022/11/03 12:18:34;;;;;;;7.78;2.50;;;16.10;53.10;;;;;;5012676;28;20049;-37
2022/11/03 12:21:02;;;;;;;6.85;2.22;;;16.10;53.00;;;;;;5009346;28;20046;-38
2022/11/03 12:23:41;;;;;;;6.60;2.35;;;16.10;53.00;;;;;;5017834;28;20068;-38
2022/11/03 12:26:16;;;;;;;8.13;2.30;;;16.10;53.10;;;;;;5012883;28;20417;-38
2022/11/03 12:28:44;;;;;;;8.32;2.63;;;16.10;53.10;;;;;;5011852;28;20054;-42
2022/11/03 12:31:13;;;;;;;6.53;2.28;;;16.10;53.00;;;;;;5001486;28;20061;-38
2022/11/03 12:33:40;;;;;;;5.93;2.00;;;16.10;53.00;;;;;;5019749;28;20053;-39
2022/11/03 12:36:08;;;;;;;11.63;2.50;;;16.00;53.00;;;;;;5012050;28;20413;-39
2022/11/03 12:38:36;;;;;;;9.25;2.08;;;16.10;53.10;;;;;;5010340;28;20057;-39
2022/11/03 12:43:44;;;;;;;9.07;2.88;;;16.10;53.10;;;;;;5004894;28;20048;-38
2022/11/03 12:46:13;;;;;;;12.43;2.70;;;16.00;53.00;;;;;;5003164;28;20057;-36
2022/11/03 12:48:42;;;;;;;8.13;2.10;;;16.00;52.90;;;;;;5005250;28;20064;-38
2022/11/03 12:51:12;;;;;;;4.28;1.83;;;16.00;52.90;;;;;;5001178;28;20065;-38
2022/11/03 12:53:39;;;;;;;9.40;2.00;;;16.00;52.90;;;;;;5006914;28;20053;-38
2022/11/03 12:56:08;;;;;;;5.15;2.38;;;16.00;52.90;;;;;;5016266;28;20057;-37
2022/11/03 12:58:35;;;;;;;5.28;1.98;;;16.00;52.90;;;;;;5018707;28;20057;-40
2022/11/03 13:01:03;;;;;;;7.68;2.20;;;16.00;52.90;;;;;;5003347;28;20050;-44
2022/11/03 13:03:33;;;;;;;5.95;2.10;;;16.10;53.00;;;;;;4999176;28;20410;-38
2022/11/03 13:06:03;;;;;;;9.40;2.22;;;16.00;52.90;;;;;;5003050;28;20409;-46
2022/11/03 13:08:30;;;;;;;8.25;2.70;;;16.00;52.80;;;;;;5002558;28;20061;-41
2022/11/03 13:10:57;;;;;;;8.48;2.22;;;16.00;52.80;;;;;;5000927;28;20401;-40
2022/11/03 13:13:25;;;;;;;7.05;2.35;;;16.00;52.70;;;;;;5002271;28;20054;-39
2022/11/03 13:15:53;;;;;;;7.32;2.50;;;16.00;52.80;;;;;;4993771;28;20076;-38
2022/11/03 13:18:21;;;;;;;9.13;2.67;;;16.00;52.80;;;;;;4993020;28;20410;-38
2022/11/03 13:20:49;;;;;;;6.63;2.45;;;16.00;52.70;;;;;;4993475;28;20057;-38
2022/11/03 13:23:17;;;;;;;7.40;2.33;;;16.00;52.70;;;;;;4994723;28;20053;-38
2022/11/03 13:25:45;;;;;;;4.50;2.30;;;16.00;52.70;;;;;;4999150;28;20057;-39